Time;durP1;ratioP1;P1;durP2;ratioP2;P2;SDS_P1;SDS_P2;PMS_P1;PMS_P2;Temp;Humidity;BMP_temperature;BMP_pressure;BME280_temperature;BME280_humidity;BME280_pressure;Samples;Min_cycle;Max_cycle;Signal;HPM_P1;HPM_P2
2022/08/29 00:03:24;;;;;;;;;;;;;;;22.98;61.71;95878.00;10250344;28;1902;-51
2022/08/29 00:08:26;;;;;;;;;;;;;;;22.99;61.96;95874.28;10247133;28;1878;-53
2022/08/29 00:13:26;;;;;;;;;;;;;;;22.97;61.55;95876.41;10248107;28;1965;-54
2022/08/29 00:18:26;;;;;;;;;;;;;;;22.98;61.83;95880.66;10243907;28;1906;-50
2022/08/29 00:23:27;;;;;;;;;;;;;;;22.97;61.74;95881.72;10245177;28;2039;-54
2022/08/29 00:28:27;;;;;;;;;;;;;;;22.97;61.47;95882.50;10251057;28;1871;-53
2022/08/29 00:33:27;;;;;;;;;;;;;;;22.96;61.47;95885.41;10246175;28;1797;-51
2022/08/29 00:38:28;;;;;;;;;;;;;;;22.98;62.14;95891.22;10245035;28;1910;-52
2022/08/29 00:43:29;;;;;;;;;;;;;;;23.00;61.75;95891.72;10245155;28;1844;-48
2022/08/29 00:48:29;;;;;;;;;;;;;;;23.01;61.59;95893.28;10244602;28;1884;-50
2022/08/29 00:53:32;;;;;;;;;;;;;;;22.99;61.28;95890.13;10244776;28;1891;-51
2022/08/29 00:58:36;;;;;;;;;;;;;;;22.98;61.65;95884.06;10245230;28;1969;-52
2022/08/29 01:03:37;;;;;;;;;;;;;;;22.99;61.31;95877.72;10243977;28;1893;-50
2022/08/29 01:08:37;;;;;;;;;;;;;;;22.96;60.93;95883.56;10247107;28;1959;-51
2022/08/29 01:13:38;;;;;;;;;;;;;;;22.93;61.07;95881.50;10245254;28;1923;-52
2022/08/29 01:18:38;;;;;;;;;;;;;;;22.92;61.02;95874.63;10261437;28;1902;-52
2022/08/29 01:23:41;;;;;;;;;;;;;;;22.92;60.73;95881.75;10256351;28;1966;-52
2022/08/29 01:28:42;;;;;;;;;;;;;;;22.92;60.69;95877.28;10245136;28;1868;-50
2022/08/29 01:33:47;;;;;;;;;;;;;;;22.92;60.58;95877.28;10242867;28;1791;-51
2022/08/29 01:38:49;;;;;;;;;;;;;;;22.90;60.46;95882.06;10244710;28;1917;-53
2022/08/29 01:43:50;;;;;;;;;;;;;;;22.91;60.52;95882.84;10243134;28;1859;-52
2022/08/29 01:48:51;;;;;;;;;;;;;;;22.89;60.34;95875.22;10245069;28;1840;-51
2022/08/29 01:53:51;;;;;;;;;;;;;;;22.89;60.36;95874.41;10244009;28;1839;-53
2022/08/29 01:58:52;;;;;;;;;;;;;;;22.91;60.45;95873.06;10245446;28;1994;-51
2022/08/29 02:03:52;;;;;;;;;;;;;;;22.90;60.23;95876.78;10241814;28;2030;-51
2022/08/29 02:08:53;;;;;;;;;;;;;;;22.89;59.83;95880.50;10242455;28;1899;-51
2022/08/29 02:13:54;;;;;;;;;;;;;;;22.88;59.83;95870.19;10246762;28;1931;-52
2022/08/29 02:18:54;;;;;;;;;;;;;;;22.87;59.64;95871.28;10242403;28;1969;-52
2022/08/29 02:23:55;;;;;;;;;;;;;;;22.85;59.62;95868.13;10242568;28;1886;-48
2022/08/29 02:28:56;;;;;;;;;;;;;;;22.85;59.72;95874.22;10244129;28;1919;-52
2022/08/29 02:33:56;;;;;;;;;;;;;;;22.84;59.35;95867.34;10245419;28;1855;-52
2022/08/29 02:38:57;;;;;;;;;;;;;;;22.84;59.42;95867.34;10243743;28;1963;-51
2022/08/29 02:43:57;;;;;;;;;;;;;;;22.86;59.62;95867.03;10248131;28;1855;-53
2022/08/29 02:48:57;;;;;;;;;;;;;;;22.84;59.23;95863.91;10249791;28;1970;-48
2022/08/29 02:53:58;;;;;;;;;;;;;;;22.83;59.13;95865.78;10251101;28;1875;-51
2022/08/29 02:58:59;;;;;;;;;;;;;;;22.83;59.00;95870.28;10253236;28;1934;-52
2022/08/29 03:03:59;;;;;;;;;;;;;;;22.82;59.01;95868.69;10249247;28;1914;-50
2022/08/29 03:08:59;;;;;;;;;;;;;;;22.81;58.87;95869.78;10251397;28;1949;-50
2022/08/29 03:14:03;;;;;;;;;;;;;;;22.79;58.72;95870.06;10248361;28;1946;-49
2022/08/29 03:19:03;;;;;;;;;;;;;;;22.79;58.70;95870.06;10250548;28;1964;-51
2022/08/29 03:24:03;;;;;;;;;;;;;;;22.79;58.74;95874.56;10263787;28;2187;-51
2022/08/29 03:29:04;;;;;;;;;;;;;;;22.78;58.80;95868.47;10248431;28;1823;-54
2022/08/29 03:34:04;;;;;;;;;;;;;;;22.78;58.55;95876.41;10250524;28;1958;-47
2022/08/29 03:39:05;;;;;;;;;;;;;;;22.79;58.34;95877.19;10248390;28;1969;-51
2022/08/29 03:44:05;;;;;;;;;;;;;;;22.79;58.25;95874.56;10245070;28;1836;-52
2022/08/29 03:49:06;;;;;;;;;;;;;;;22.76;58.15;95869.81;10247849;28;1934;-52
2022/08/29 03:54:06;;;;;;;;;;;;;;;22.76;58.24;95878.53;10246789;28;1899;-51
2022/08/29 03:59:07;;;;;;;;;;;;;;;22.78;58.11;95888.81;10245735;28;1982;-53
2022/08/29 04:05:05;;;;;;;;;;;;;;;22.76;58.11;95889.13;10245123;28;2082;-51
2022/08/29 04:09:28;;;;;;;;;;;;;;;22.78;58.28;95899.41;10245835;28;1923;-50
2022/08/29 04:14:29;;;;;;;;;;;;;;;22.77;57.77;95897.84;10245741;28;1804;-48
2022/08/29 04:19:29;;;;;;;;;;;;;;;22.76;58.06;95894.41;10248218;28;2089;-50
2022/08/29 04:24:30;;;;;;;;;;;;;;;22.81;58.00;95896.19;10248260;28;1743;-51
2022/08/29 04:29:32;;;;;;;;;;;;;;;22.80;58.10;95903.34;10246437;28;1926;-48
2022/08/29 04:34:33;;;;;;;;;;;;;;;22.80;57.96;95897.25;10261541;28;1890;-51
2022/08/29 04:39:33;;;;;;;;;;;;;;;22.78;57.84;95902.03;10243717;28;1983;-54
2022/08/29 04:44:33;;;;;;;;;;;;;;;22.80;57.85;95908.63;10244328;28;1939;-50
2022/08/29 04:49:33;;;;;;;;;;;;;;;22.83;57.78;95902.00;10245213;28;1910;-54
2022/08/29 04:54:34;;;;;;;;;;;;;;;22.82;57.86;95908.34;10245583;28;1934;-51
2022/08/29 04:59:34;;;;;;;;;;;;;;;22.83;57.57;95915.19;10243732;28;1965;-53
2022/08/29 05:04:34;;;;;;;;;;;;;;;22.85;57.72;95915.72;10246928;28;1950;-53
2022/08/29 05:09:34;;;;;;;;;;;;;;;22.86;57.63;95922.56;10242994;28;1889;-51
2022/08/29 05:14:36;;;;;;;;;;;;;;;22.86;57.59;95927.84;10244976;28;1848;-51
2022/08/29 05:19:36;;;;;;;;;;;;;;;22.88;57.75;95923.84;10245626;28;1941;-50
2022/08/29 05:24:36;;;;;;;;;;;;;;;22.84;56.72;95929.97;10239509;28;2020;-51
2022/08/29 05:29:40;;;;;;;;;;;;;;;22.80;56.96;95936.91;10249359;28;1763;-50
2022/08/29 05:34:43;;;;;;;;;;;;;;;22.81;56.94;95935.84;10243196;28;1945;-50
2022/08/29 05:39:43;;;;;;;;;;;;;;;22.89;57.66;95929.94;10242126;28;1915;-52
2022/08/29 05:44:44;;;;;;;;;;;;;;;22.96;57.53;95933.00;10244204;28;1861;-52
2022/08/29 05:49:46;;;;;;;;;;;;;;;22.99;57.57;95927.16;10244692;28;1899;-50
2022/08/29 05:54:47;;;;;;;;;;;;;;;23.02;57.76;95932.66;10246495;28;1773;-52
2022/08/29 05:59:50;;;;;;;;;;;;;;;23.04;57.66;95946.38;10246766;28;2110;-53
2022/08/29 06:04:50;;;;;;;;;;;;;;;23.06;57.68;95944.22;10243925;28;1907;-50
2022/08/29 06:09:51;;;;;;;;;;;;;;;23.08;57.87;95947.38;10248416;28;2215;-53
2022/08/29 06:14:52;;;;;;;;;;;;;;;23.09;57.60;95941.03;10247520;28;1942;-50
2022/08/29 06:19:52;;;;;;;;;;;;;;;23.11;57.56;95946.03;10253352;28;1918;-48
2022/08/29 06:24:54;;;;;;;;;;;;;;;23.13;57.49;95943.88;10252389;28;1894;-53
2022/08/29 06:29:54;;;;;;;;;;;;;;;23.14;57.88;95946.22;10251841;28;1884;-52
2022/08/29 06:34:54;;;;;;;;;;;;;;;23.15;57.76;95950.47;10252744;28;1879;-52
2022/08/29 06:39:55;;;;;;;;;;;;;;;23.17;57.63;95952.81;10250190;28;1899;-49
2022/08/29 06:44:55;;;;;;;;;;;;;;;23.18;57.58;95949.13;10249367;28;1930;-51
2022/08/29 06:49:56;;;;;;;;;;;;;;;23.18;57.64;95957.06;10251366;28;1928;-52
2022/08/29 06:54:56;;;;;;;;;;;;;;;23.20;57.58;95957.56;10249273;28;2007;-52
2022/08/29 06:59:56;;;;;;;;;;;;;;;23.20;57.31;95963.63;10250514;28;1978;-47
2022/08/29 07:04:56;;;;;;;;;;;;;;;23.20;57.22;95974.22;10249116;28;2084;-52
2022/08/29 07:09:57;;;;;;;;;;;;;;;23.22;57.65;95974.72;10250566;28;1932;-52
2022/08/29 07:14:57;;;;;;;;;;;;;;;23.23;57.55;95972.84;10247985;28;2227;-48
2022/08/29 07:19:57;;;;;;;;;;;;;;;23.23;57.50;95970.19;10249357;28;1957;-52
2022/08/29 07:24:58;;;;;;;;;;;;;;;23.25;57.40;95975.97;10244836;28;1859;-50
2022/08/29 07:30:01;;;;;;;;;;;;;;;23.27;57.41;95965.91;10245890;28;2113;-52
2022/08/29 07:35:12;;;;;;;;;;;;;;;23.30;56.89;95971.44;10250766;28;1975;-50
2022/08/29 07:40:12;;;;;;;;;;;;;;;23.30;56.96;95971.44;10247987;28;1906;-51
2022/08/29 07:45:13;;;;;;;;;;;;;;;23.32;56.95;95976.47;10249025;28;1904;-51
2022/08/29 07:50:14;;;;;;;;;;;;;;;23.32;56.88;95985.19;10245906;28;1896;-53
2022/08/29 07:55:14;;;;;;;;;;;;;;;23.32;57.18;95981.75;10247701;28;1879;-50
2022/08/29 08:00:14;;;;;;;;;;;;;;;23.38;56.77;95983.25;10247450;28;1907;-51
2022/08/29 08:05:15;;;;;;;;;;;;;;;23.39;56.63;96000.69;10248976;28;2027;-52
2022/08/29 08:10:18;;;;;;;;;;;;;;;23.40;56.52;95991.69;10263077;28;1906;-53
2022/08/29 08:15:20;;;;;;;;;;;;;;;23.40;56.49;95997.78;10245275;28;1972;-51
2022/08/29 08:20:21;;;;;;;;;;;;;;;23.41;56.74;95998.56;10246444;28;1985;-52
2022/08/29 08:25:23;;;;;;;;;;;;;;;23.43;56.74;96001.72;10245480;28;1962;-54
2022/08/29 08:30:23;;;;;;;;;;;;;;;23.44;56.37;96000.63;10247030;28;1887;-50
2022/08/29 08:35:24;;;;;;;;;;;;;;;23.45;56.48;96007.50;10246682;28;1829;-51
2022/08/29 08:40:26;;;;;;;;;;;;;;;23.47;56.31;95997.41;10247497;28;1914;-53
2022/08/29 08:45:36;;;;;;;;;;;;;;;23.49;56.18;96005.06;10262102;28;1919;-49
2022/08/29 08:50:36;;;;;;;;;;;;;;;23.50;56.15;96002.13;10260030;28;2049;-50
2022/08/29 08:55:43;;;;;;;;;;;;;;;23.52;56.02;95996.53;10243408;28;2037;-51
2022/08/29 09:00:48;;;;;;;;;;;;;;;23.53;56.07;95998.94;10256801;28;2025;-50
2022/08/29 09:06:00;;;;;;;;;;;;;;;23.54;55.97;95997.84;10245447;28;2062;-53
2022/08/29 09:11:02;;;;;;;;;;;;;;;23.55;56.29;95996.78;10242221;28;2039;-52
2022/08/29 09:16:04;;;;;;;;;;;;;;;23.57;56.22;95997.28;10257061;28;2207;-51
2022/08/29 09:21:05;;;;;;;;;;;;;;;23.59;56.21;95999.63;10244020;28;2022;-52
2022/08/29 09:26:06;;;;;;;;;;;;;;;23.60;56.03;95999.34;10259726;28;1935;-52
2022/08/29 09:31:20;;;;;;;;;;;;;;;23.61;56.24;95992.97;10246516;28;2069;-50
2022/08/29 09:36:35;;;;;;;;;;;;;;;23.63;56.15;95996.13;10253107;28;2060;-54
2022/08/29 09:41:36;;;;;;;;;;;;;;;23.64;56.05;96000.34;10242932;28;2034;-54
2022/08/29 09:46:36;;;;;;;;;;;;;;;23.66;55.83;95992.91;10243941;28;2062;-50
2022/08/29 09:51:42;;;;;;;;;;;;;;;23.68;55.80;95992.63;10244166;28;2113;-52
2022/08/29 09:57:06;;;;;;;;;;;;;;;23.70;55.73;96001.84;10244571;28;2226;-50
2022/08/29 10:02:15;;;;;;;;;;;;;;;23.71;55.68;95992.03;10236198;28;2015;-53
2022/08/29 10:07:36;;;;;;;;;;;;;;;23.72;55.39;95990.97;10243659;28;2069;-52
2022/08/29 10:12:54;;;;;;;;;;;;;;;23.72;55.49;95991.75;10236733;28;2329;-50
2022/08/29 10:23:22;;;;;;;;;;;;;;;23.75;55.69;95993.84;10254591;28;2017;-49
2022/08/29 10:28:23;;;;;;;;;;;;;;;23.75;55.60;95987.75;10241892;28;2066;-54
2022/08/29 10:33:43;;;;;;;;;;;;;;;23.76;55.38;95987.44;10243196;28;2430;-50
2022/08/29 10:38:49;;;;;;;;;;;;;;;23.78;55.42;96000.41;10231533;28;2066;-51
2022/08/29 10:44:00;;;;;;;;;;;;;;;23.77;55.41;95999.63;10257333;28;2135;-52
2022/08/29 10:49:09;;;;;;;;;;;;;;;23.78;55.39;96003.81;10243863;28;2009;-51
2022/08/29 10:54:45;;;;;;;;;;;;;;;23.80;55.60;95993.75;10239743;28;2041;-51
2022/08/29 10:59:58;;;;;;;;;;;;;;;23.82;55.13;95983.66;10173885;28;2124;-51
2022/08/29 11:04:59;;;;;;;;;;;;;;;23.82;55.43;95983.66;10268371;28;2018;-50
2022/08/29 11:10:00;;;;;;;;;;;;;;;23.86;55.31;95989.97;10251645;28;2011;-51
2022/08/29 11:15:27;;;;;;;;;;;;;;;23.85;55.04;95987.59;10265353;28;1913;-52
2022/08/29 11:20:28;;;;;;;;;;;;;;;23.86;55.41;95984.66;10250042;28;2252;-53
2022/08/29 11:25:35;;;;;;;;;;;;;;;23.85;55.27;95983.09;10251843;28;2049;-50
2022/08/29 11:30:58;;;;;;;;;;;;;;;23.88;55.29;95982.53;10250236;28;2053;-52
2022/08/29 11:36:17;;;;;;;;;;;;;;;23.87;55.38;95988.88;10231692;28;2074;-52
2022/08/29 11:41:20;;;;;;;;;;;;;;;23.87;55.26;95978.28;10247935;28;2061;-51
2022/08/29 11:46:40;;;;;;;;;;;;;;;23.89;55.25;95984.06;10251426;28;2013;-50
2022/08/29 11:51:41;;;;;;;;;;;;;;;23.89;55.38;95981.44;10261556;28;2114;-49
2022/08/29 11:56:41;;;;;;;;;;;;;;;23.90;55.10;95980.38;10245017;28;1907;-52
2022/08/29 12:01:55;;;;;;;;;;;;;;;23.91;55.12;95970.53;10247412;28;2055;-50
2022/08/29 12:06:57;;;;;;;;;;;;;;;23.92;55.05;95964.97;10251007;28;2074;-50
2022/08/29 12:11:58;;;;;;;;;;;;;;;23.92;55.14;95967.63;10242569;28;2048;-50
2022/08/29 12:17:01;;;;;;;;;;;;;;;23.92;55.33;95962.34;10244974;28;1887;-54
2022/08/29 12:22:01;;;;;;;;;;;;;;;23.93;55.22;95965.75;10245664;28;1915;-51
2022/08/29 12:27:02;;;;;;;;;;;;;;;23.94;54.93;95965.47;10245945;28;2197;-53
2022/08/29 12:32:25;;;;;;;;;;;;;;;23.95;55.19;95960.94;10243482;28;2115;-53
2022/08/29 12:37:25;;;;;;;;;;;;;;;23.97;54.97;95964.88;10264802;28;1987;-50
2022/08/29 12:42:45;;;;;;;;;;;;;;;23.97;55.02;95954.28;10243800;28;1983;-51
2022/08/29 12:47:59;;;;;;;;;;;;;;;24.00;55.01;95958.22;10243829;28;2093;-51
2022/08/29 12:53:00;;;;;;;;;;;;;;;23.99;55.00;95968.03;10243354;28;2022;-48
2022/08/29 12:58:01;;;;;;;;;;;;;;;23.99;54.96;95946.84;10248899;28;1936;-50
2022/08/29 13:03:01;;;;;;;;;;;;;;;23.98;54.98;95955.88;10244863;28;2039;-52
2022/08/29 13:08:06;;;;;;;;;;;;;;;24.00;54.87;95942.34;10245677;28;2049;-49
2022/08/29 13:13:07;;;;;;;;;;;;;;;24.00;54.85;95940.50;10244855;28;1967;-50
2022/08/29 13:18:08;;;;;;;;;;;;;;;24.01;54.70;95942.03;10243988;28;2089;-49
2022/08/29 13:23:11;;;;;;;;;;;;;;;24.02;54.75;95929.59;10240229;28;1980;-50
2022/08/29 13:28:12;;;;;;;;;;;;;;;24.03;54.95;95939.09;10241424;28;2018;-52
2022/08/29 13:33:24;;;;;;;;;;;;;;;24.03;54.63;95936.44;10256696;28;1908;-52
2022/08/29 13:38:25;;;;;;;;;;;;;;;24.04;54.72;95938.06;10245947;28;2114;-51
2022/08/29 13:43:31;;;;;;;;;;;;;;;24.04;54.82;95930.91;10242109;28;1738;-51
2022/08/29 13:48:32;;;;;;;;;;;;;;;24.06;54.79;95925.31;10243332;28;2125;-53
2022/08/29 13:53:32;;;;;;;;;;;;;;;24.06;54.48;95920.81;10257293;28;2048;-52
2022/08/29 13:58:33;;;;;;;;;;;;;;;24.07;54.89;95909.13;10243118;28;2007;-50
2022/08/29 14:03:33;;;;;;;;;;;;;;;24.08;54.67;95915.22;10248606;28;2074;-49
2022/08/29 14:08:33;;;;;;;;;;;;;;;24.08;54.59;95913.38;10247215;28;2110;-49
2022/08/29 14:13:34;;;;;;;;;;;;;;;24.09;54.64;95903.56;10243883;28;1903;-50
2022/08/29 14:18:34;;;;;;;;;;;;;;;24.07;54.63;95901.19;10246168;28;1927;-52
2022/08/29 14:23:34;;;;;;;;;;;;;;;24.08;54.74;95896.69;10242630;28;2008;-52
2022/08/29 14:28:34;;;;;;;;;;;;;;;24.09;54.61;95892.97;10244036;28;2065;-50
2022/08/29 14:33:35;;;;;;;;;;;;;;;24.09;54.59;95888.44;10245480;28;1901;-51
2022/08/29 14:38:35;;;;;;;;;;;;;;;24.10;54.64;95883.94;10249674;28;1962;-50
2022/08/29 14:43:36;;;;;;;;;;;;;;;24.10;54.43;95879.44;10250074;28;2087;-51
2022/08/29 14:48:36;;;;;;;;;;;;;;;24.10;54.42;95879.44;10252361;28;2133;-50
2022/08/29 14:53:36;;;;;;;;;;;;;;;24.10;54.64;95879.44;10256995;28;1978;-51
2022/08/29 14:58:36;;;;;;;;;;;;;;;24.11;54.68;95877.56;10249979;28;1982;-51
2022/08/29 15:03:37;;;;;;;;;;;;;;;24.10;54.52;95878.63;10250411;28;2145;-52
2022/08/29 15:08:37;;;;;;;;;;;;;;;24.11;54.49;95882.88;10252573;28;2144;-53
2022/08/29 15:13:38;;;;;;;;;;;;;;;24.11;54.34;95880.97;10249105;28;1937;-51
2022/08/29 15:18:39;;;;;;;;;;;;;;;24.10;54.68;95879.44;10246749;28;2014;-49
2022/08/29 15:23:39;;;;;;;;;;;;;;;24.12;54.60;95876.47;10250533;28;2201;-51
2022/08/29 15:28:39;;;;;;;;;;;;;;;24.13;54.69;95867.47;10245854;28;2170;-51
2022/08/29 15:33:40;;;;;;;;;;;;;;;24.13;54.33;95868.22;10250141;28;1965;-49
2022/08/29 15:38:40;;;;;;;;;;;;;;;24.14;54.49;95864.53;10245724;28;1988;-51
2022/08/29 15:43:41;;;;;;;;;;;;;;;24.14;54.86;95856.56;10249423;28;2034;-48
2022/08/29 15:48:41;;;;;;;;;;;;;;;24.15;54.67;95863.44;10246849;28;2054;-50
2022/08/29 15:53:41;;;;;;;;;;;;;;;24.14;54.65;95853.94;10237531;28;2078;-49
2022/08/29 15:58:42;;;;;;;;;;;;;;;24.14;54.68;95851.28;10242290;28;2081;-52
2022/08/29 16:03:43;;;;;;;;;;;;;;;24.15;54.55;95855.47;10244080;28;2156;-51
2022/08/29 16:08:43;;;;;;;;;;;;;;;24.13;54.48;95847.03;10245658;28;2042;-53
2022/08/29 16:13:44;;;;;;;;;;;;;;;24.13;54.66;95854.22;10244410;28;1870;-48
2022/08/29 16:18:44;;;;;;;;;;;;;;;24.14;54.61;95853.13;10247477;28;1996;-51
2022/08/29 16:23:45;;;;;;;;;;;;;;;24.13;54.72;95851.59;10239485;28;1784;-52
2022/08/29 16:28:45;;;;;;;;;;;;;;;24.11;54.42;95849.19;10239823;28;2050;-53
2022/08/29 16:33:46;;;;;;;;;;;;;;;24.11;54.34;95854.50;10243339;28;2038;-48
2022/08/29 16:38:46;;;;;;;;;;;;;;;24.10;54.27;95849.50;10242984;28;1989;-51
2022/08/29 16:43:50;;;;;;;;;;;;;;;24.09;53.90;95859.31;10249910;28;2068;-52
2022/08/29 16:48:51;;;;;;;;;;;;;;;24.09;54.15;95859.31;10239189;28;2109;-51
2022/08/29 16:53:52;;;;;;;;;;;;;;;24.07;53.68;95850.88;10242463;28;2011;-51
2022/08/29 16:58:58;;;;;;;;;;;;;;;24.08;53.48;95849.81;10240538;28;1995;-52
2022/08/29 17:04:00;;;;;;;;;;;;;;;24.08;53.70;95862.25;10233859;28;2100;-50
2022/08/29 17:19:05;;;;;;;;;;;;;;;24.09;53.62;95850.59;10238656;28;2007;-53
2022/08/29 17:24:05;;;;;;;;;;;;;;;24.10;53.94;95855.59;10238247;28;2082;-48
2022/08/29 17:29:07;;;;;;;;;;;;;;;24.11;53.77;95857.16;10246130;28;2103;-53
2022/08/29 17:34:07;;;;;;;;;;;;;;;24.12;53.99;95863.22;10244245;28;2054;-52
2022/08/29 17:39:08;;;;;;;;;;;;;;;24.12;53.58;95856.09;10241388;28;1911;-50
2022/08/29 17:44:08;;;;;;;;;;;;;;;24.12;53.66;95850.00;10242285;28;2065;-50
2022/08/29 17:49:10;;;;;;;;;;;;;;;24.12;53.58;95850.00;10244522;28;2432;-52
2022/08/29 17:54:11;;;;;;;;;;;;;;;24.12;53.85;95852.66;10235450;28;2038;-51
2022/08/29 17:59:12;;;;;;;;;;;;;;;24.11;53.88;95846.56;10242478;28;1979;-51
2022/08/29 18:04:12;;;;;;;;;;;;;;;24.11;53.78;95854.50;10238531;28;2002;-53
2022/08/29 18:09:12;;;;;;;;;;;;;;;24.11;54.01;95853.75;10244874;28;2086;-49
2022/08/29 18:14:13;;;;;;;;;;;;;;;24.11;53.80;95864.34;10246572;28;2066;-52
2022/08/29 18:19:13;;;;;;;;;;;;;;;24.08;53.52;95878.94;10248413;28;1951;-53
2022/08/29 18:24:14;;;;;;;;;;;;;;;24.06;53.06;95881.09;10246889;28;2073;-53
2022/08/29 18:29:15;;;;;;;;;;;;;;;24.06;53.23;95889.03;10249172;28;2114;-50
2022/08/29 18:34:15;;;;;;;;;;;;;;;24.01;52.30;95885.63;10249805;28;1988;-50
2022/08/29 18:39:15;;;;;;;;;;;;;;;23.99;52.12;95893.88;10247953;28;2034;-51
2022/08/29 18:44:16;;;;;;;;;;;;;;;23.97;52.27;95888.09;10247141;28;2073;-51
2022/08/29 18:49:18;;;;;;;;;;;;;;;23.96;51.80;95896.34;10251301;28;1987;-53
2022/08/29 18:54:18;;;;;;;;;;;;;;;23.95;52.26;95903.50;10249422;28;2202;-52
2022/08/29 18:59:18;;;;;;;;;;;;;;;23.94;51.72;95901.13;10251852;28;1975;-51
2022/08/29 19:04:19;;;;;;;;;;;;;;;23.91;51.56;95899.84;10250825;28;2140;-52
2022/08/29 19:09:19;;;;;;;;;;;;;;;23.91;51.75;95907.78;10249484;28;2075;-52
2022/08/29 19:14:19;;;;;;;;;;;;;;;23.96;52.10;95910.38;10249303;28;2292;-52
2022/08/29 19:19:20;;;;;;;;;;;;;;;24.01;52.76;95914.78;10252557;28;2022;-53
2022/08/29 19:24:20;;;;;;;;;;;;;;;24.05;52.84;95921.13;10252079;28;1970;-50
2022/08/29 19:29:21;;;;;;;;;;;;;;;24.06;52.93;95922.66;10242664;28;2025;-47
2022/08/29 19:34:22;;;;;;;;;;;;;;;24.07;52.98;95927.66;10252631;28;2249;-51
2022/08/29 19:39:22;;;;;;;;;;;;;;;24.07;53.07;95935.63;10249751;28;2002;-50
2022/08/29 19:44:22;;;;;;;;;;;;;;;24.08;53.03;95937.19;10241459;28;2069;-53
2022/08/29 19:49:23;;;;;;;;;;;;;;;24.05;53.01;95945.72;10231423;28;2131;-48
2022/08/29 19:54:23;;;;;;;;;;;;;;;23.97;52.38;95943.69;10242782;28;2102;-50
2022/08/29 19:59:24;;;;;;;;;;;;;;;23.93;52.18;95941.91;10242182;28;2074;-49
2022/08/29 20:04:24;;;;;;;;;;;;;;;23.90;51.98;95937.22;10247775;28;2029;-52
2022/08/29 20:09:25;;;;;;;;;;;;;;;23.88;51.76;95937.50;10243656;28;2074;-51
2022/08/29 20:14:26;;;;;;;;;;;;;;;23.87;51.91;95943.88;10243469;28;2095;-51
2022/08/29 20:19:26;;;;;;;;;;;;;;;23.85;51.83;95934.63;10246673;28;2339;-52
2022/08/29 20:24:26;;;;;;;;;;;;;;;23.85;51.73;95938.06;10244377;28;2047;-53
2022/08/29 20:29:28;;;;;;;;;;;;;;;23.83;51.52;95942.09;10245413;28;2196;-51
2022/08/29 20:34:29;;;;;;;;;;;;;;;23.83;51.60;95931.50;10246563;28;2130;-53
2022/08/29 20:39:29;;;;;;;;;;;;;;;23.81;51.72;95939.72;10241597;28;2017;-53
2022/08/29 20:44:30;;;;;;;;;;;;;;;23.80;51.36;95935.50;10239738;28;1887;-49
2022/08/29 20:49:30;;;;;;;;;;;;;;;23.79;51.76;95927.84;10265879;28;2069;-52
2022/08/29 20:54:31;;;;;;;;;;;;;;;23.77;51.57;95933.44;10246872;28;2050;-52
2022/08/29 20:59:31;;;;;;;;;;;;;;;23.77;51.71;95936.09;10243067;28;2115;-53
2022/08/29 21:09:51;;;;;;;;;;;;;;;23.73;51.62;95943.03;10242172;28;2191;-54
2022/08/29 21:14:51;;;;;;;;;;;;;;;23.70;51.63;95948.13;10254928;28;2125;-52
2022/08/29 21:19:52;;;;;;;;;;;;;;;23.71;51.68;95950.47;10245936;28;1965;-52
2022/08/29 21:24:53;;;;;;;;;;;;;;;23.69;51.49;95951.84;10240150;28;2016;-53
2022/08/29 21:29:54;;;;;;;;;;;;;;;23.70;51.71;95948.13;10241545;28;2435;-51
2022/08/29 21:34:54;;;;;;;;;;;;;;;23.69;51.71;95942.03;10244374;28;2076;-51
2022/08/29 21:39:54;;;;;;;;;;;;;;;23.69;51.75;95942.03;10243093;28;2085;-54
2022/08/29 21:44:55;;;;;;;;;;;;;;;23.67;51.57;95946.84;10242648;28;2248;-53
2022/08/29 21:49:55;;;;;;;;;;;;;;;23.66;51.67;95947.91;10242959;28;1875;-50
2022/08/29 21:54:56;;;;;;;;;;;;;;;23.68;51.81;95947.63;10243289;28;2015;-53
2022/08/29 21:59:56;;;;;;;;;;;;;;;23.65;51.78;95951.63;10243211;28;2152;-53
2022/08/29 22:04:57;;;;;;;;;;;;;;;23.65;51.82;95941.06;10243246;28;2003;-53
2022/08/29 22:09:57;;;;;;;;;;;;;;;23.64;51.75;95944.75;10239333;28;2117;-52
2022/08/29 22:20:18;;;;;;;;;;;;;;;23.61;51.81;95945.34;10248628;28;2070;-50
2022/08/29 22:25:18;;;;;;;;;;;;;;;23.59;51.91;95939.56;10240013;28;2062;-52
2022/08/29 22:30:19;;;;;;;;;;;;;;;23.58;51.92;95956.50;10240879;28;1983;-53
2022/08/29 22:35:20;;;;;;;;;;;;;;;23.57;52.08;95948.84;10242989;28;1990;-49
2022/08/29 22:40:20;;;;;;;;;;;;;;;23.57;51.94;95954.94;10238018;28;2298;-53
2022/08/29 22:45:20;;;;;;;;;;;;;;;23.56;52.03;95958.66;10254628;28;2064;-50
2022/08/29 22:50:21;;;;;;;;;;;;;;;23.55;52.18;95957.09;10245160;28;2076;-53
2022/08/29 22:55:22;;;;;;;;;;;;;;;23.55;52.03;95959.72;10244234;28;2041;-52
2022/08/29 23:00:23;;;;;;;;;;;;;;;23.53;52.18;95959.22;10251521;28;1985;-53
2022/08/29 23:05:24;;;;;;;;;;;;;;;23.53;52.16;95951.28;10249852;28;2113;-53
2022/08/29 23:10:24;;;;;;;;;;;;;;;23.52;51.92;95948.91;10247667;28;2057;-52
2022/08/29 23:15:24;;;;;;;;;;;;;;;23.51;52.16;95950.78;10247691;28;2074;-51
2022/08/29 23:20:25;;;;;;;;;;;;;;;23.50;52.06;95949.22;10248278;28;2037;-52
2022/08/29 23:25:25;;;;;;;;;;;;;;;23.49;52.06;95958.22;10256844;28;2042;-52
2022/08/29 23:30:26;;;;;;;;;;;;;;;23.47;51.86;95954.28;10251771;28;2007;-52
2022/08/29 23:35:26;;;;;;;;;;;;;;;23.47;52.03;95949.00;10252426;28;2163;-51
2022/08/29 23:40:27;;;;;;;;;;;;;;;23.46;52.07;95948.22;10246573;28;1964;-50
2022/08/29 23:45:27;;;;;;;;;;;;;;;23.44;52.18;95947.72;10245275;28;2018;-49
2022/08/29 23:50:27;;;;;;;;;;;;;;;23.44;52.10;95945.06;10249135;28;2117;-49
2022/08/29 23:55:28;;;;;;;;;;;;;;;23.43;51.87;95938.22;10244277;28;2237;-54
